createdAt,value
2022-12-18T00:00:03.033Z,85.2
2022-12-18T00:03:03.473Z,85.2
2022-12-18T00:06:02.921Z,85.2
2022-12-18T00:09:02.947Z,85.2
2022-12-18T00:15:02.975Z,85.2
2022-12-18T00:18:02.950Z,85.2
2022-12-18T00:21:02.948Z,86.3
2022-12-18T00:24:02.977Z,86.3
2022-12-18T00:27:02.953Z,86.3
2022-12-18T00:30:02.927Z,86.3
2022-12-18T00:33:03.026Z,86.3
2022-12-18T00:36:02.908Z,86.5
2022-12-18T00:39:02.948Z,86.5
2022-12-18T00:42:02.934Z,86.5
2022-12-18T00:45:05.379Z,86.5
2022-12-18T00:48:03.192Z,86.5
2022-12-18T00:51:02.961Z,86.5
2022-12-18T00:54:02.995Z,86.5
2022-12-18T00:57:02.941Z,86.5
2022-12-18T01:00:03.102Z,86.8
2022-12-18T01:03:03.188Z,86.8
2022-12-18T01:06:03.073Z,86.8
2022-12-18T01:09:03.008Z,86.8
2022-12-18T01:12:03.120Z,86.8
2022-12-18T01:15:02.917Z,86.7
2022-12-18T01:18:03.588Z,86.7
2022-12-18T01:21:02.935Z,86.7
2022-12-18T01:24:02.947Z,86.7
2022-12-18T01:27:03.123Z,86.7
2022-12-18T01:30:03.285Z,86.7
2022-12-18T01:33:03.092Z,86.5
2022-12-18T01:36:04.560Z,86.5
2022-12-18T01:39:02.956Z,86.5
2022-12-18T01:42:04.199Z,86.5
2022-12-18T01:45:03.147Z,86.5
2022-12-18T01:48:02.975Z,86.5
2022-12-18T01:51:02.952Z,86.5
2022-12-18T01:54:03.064Z,86.5
2022-12-18T01:57:03.802Z,86.5
2022-12-18T02:00:03.098Z,86.5
2022-12-18T02:03:03.223Z,86.5
2022-12-18T02:06:03.023Z,86.5
2022-12-18T02:09:03.525Z,86.5
2022-12-18T02:12:03.759Z,86.5
2022-12-18T02:15:03.010Z,86.5
2022-12-18T02:18:03.063Z,85.9
2022-12-18T02:21:03.266Z,85.9
2022-12-18T02:24:03.121Z,85.9
2022-12-18T02:27:02.932Z,85.9
2022-12-18T02:30:03.060Z,85.9
2022-12-18T02:33:02.881Z,85.9
2022-12-18T02:36:03.023Z,86.3
2022-12-18T02:39:04.223Z,86.3
2022-12-18T02:42:02.956Z,86.3
2022-12-18T02:45:02.979Z,86.3
2022-12-18T02:48:02.995Z,86.3
2022-12-18T02:51:02.994Z,86.3
2022-12-18T02:54:02.902Z,86.3
2022-12-18T02:57:02.938Z,86.3
2022-12-18T03:00:03.025Z,86.3
2022-12-18T03:03:03.334Z,86.3
2022-12-18T03:06:03.173Z,86.3
2022-12-18T03:09:03.032Z,86.3
2022-12-18T03:12:02.989Z,86.3
2022-12-18T03:15:03.068Z,86.3
2022-12-18T03:18:03.726Z,86.6
2022-12-18T03:21:02.946Z,86.6
2022-12-18T03:24:03.036Z,86.6
2022-12-18T03:27:02.925Z,86.6
2022-12-18T03:30:02.992Z,86.6
2022-12-18T03:33:03.064Z,86.6
2022-12-18T03:36:03.058Z,86.6
2022-12-18T03:39:02.989Z,86.6
2022-12-18T03:42:03.058Z,86.6
2022-12-18T03:45:02.975Z,86.6
2022-12-18T03:48:03.034Z,86.6
2022-12-18T03:51:03.000Z,86.6
2022-12-18T03:54:02.971Z,86.6
2022-12-18T03:57:02.992Z,86.6
2022-12-18T04:00:03.076Z,86.6
2022-12-18T04:03:03.004Z,86.6
2022-12-18T04:06:02.932Z,86.6
2022-12-18T04:09:03.043Z,86.6
2022-12-18T04:12:03.020Z,86.6
2022-12-18T04:15:03.049Z,86.6
2022-12-18T04:18:02.963Z,86.6
2022-12-18T04:21:02.957Z,86.6
2022-12-18T04:24:03.112Z,86.8
2022-12-18T04:27:02.993Z,86.8
2022-12-18T04:30:03.070Z,86.8
2022-12-18T04:33:02.962Z,86.8
2022-12-18T04:36:03.009Z,86.8
2022-12-18T04:39:03.018Z,86.8
2022-12-18T04:42:02.982Z,86.8
2022-12-18T04:45:02.883Z,86.8
2022-12-18T04:48:03.051Z,86.8
2022-12-18T04:51:02.920Z,86.8
2022-12-18T04:54:03.010Z,86.8
2022-12-18T04:57:02.991Z,86.8
2022-12-18T05:00:03.011Z,86.8
2022-12-18T05:03:03.206Z,86.8
2022-12-18T05:06:03.109Z,86.8
2022-12-18T05:09:03.056Z,86.5
2022-12-18T05:12:03.241Z,86.5
2022-12-18T05:15:02.994Z,86.5
2022-12-18T05:18:03.268Z,86.5
2022-12-18T05:21:03.001Z,86.5
2022-12-18T05:24:02.978Z,86.5
2022-12-18T05:27:02.901Z,86.5
2022-12-18T05:30:03.007Z,86.5
2022-12-18T05:33:02.972Z,86.5
2022-12-18T05:36:02.918Z,86.5
2022-12-18T05:39:02.922Z,86.5
2022-12-18T05:42:03.001Z,86.5
2022-12-18T05:45:02.933Z,86.5
2022-12-18T05:48:02.888Z,86.5
2022-12-18T05:51:02.994Z,86.5
2022-12-18T05:54:02.934Z,86.5
2022-12-18T05:57:02.896Z,86.5
2022-12-18T06:00:02.970Z,86.5
2022-12-18T06:03:03.379Z,85.5
2022-12-18T06:06:03.156Z,85.5
2022-12-18T06:09:02.942Z,85.5
2022-12-18T06:12:03.044Z,85.5
2022-12-18T06:15:02.983Z,85.5
2022-12-18T06:18:03.000Z,85.5
2022-12-18T06:21:02.999Z,85.5
2022-12-18T06:24:03.042Z,85.1
2022-12-18T06:27:03.091Z,85.1
2022-12-18T06:30:03.131Z,85.1
2022-12-18T06:33:02.961Z,85.1
2022-12-18T06:36:03.697Z,85.1
2022-12-18T06:39:02.880Z,85.1
2022-12-18T06:42:02.934Z,85.1
2022-12-18T06:45:02.938Z,85.1
2022-12-18T06:48:02.927Z,85.1
2022-12-18T06:51:02.889Z,85.1
2022-12-18T06:54:02.960Z,85.1
2022-12-18T06:57:02.956Z,85
2022-12-18T07:00:03.150Z,85
2022-12-18T07:03:03.093Z,85
2022-12-18T07:06:02.934Z,85
2022-12-18T07:09:02.930Z,85
2022-12-18T07:12:02.939Z,85
2022-12-18T07:15:02.972Z,85
2022-12-18T07:18:02.946Z,85
2022-12-18T07:21:02.966Z,85
2022-12-18T07:24:02.955Z,85
2022-12-18T07:27:03.032Z,85
2022-12-18T07:30:02.944Z,85
2022-12-18T07:33:03.003Z,85
2022-12-18T07:36:03.030Z,85.3
2022-12-18T07:39:02.970Z,85.3
2022-12-18T07:42:02.940Z,85.3
2022-12-18T07:45:02.987Z,85.3
2022-12-18T07:48:03.021Z,85.3
2022-12-18T07:51:02.962Z,85.6
2022-12-18T07:54:03.024Z,85.6
2022-12-18T07:57:02.989Z,85.6
2022-12-18T08:00:03.089Z,85.8
2022-12-18T08:03:03.340Z,85.8
2022-12-18T08:06:03.051Z,85.8
2022-12-18T08:09:03.024Z,85.8
2022-12-18T08:12:03.038Z,85.8
2022-12-18T08:15:02.984Z,85.8
2022-12-18T08:18:02.969Z,85.8
2022-12-18T08:21:02.928Z,85.8
2022-12-18T08:24:03.015Z,85.8
2022-12-18T08:27:32.315Z,85.8
2022-12-18T08:30:02.976Z,86.3
2022-12-18T08:33:02.921Z,86.3
2022-12-18T08:36:02.979Z,86.3
2022-12-18T08:39:02.998Z,86.3
2022-12-18T08:42:11.960Z,86.3
2022-12-18T08:45:02.985Z,86.3
2022-12-18T08:48:03.031Z,87.2
2022-12-18T08:51:03.014Z,87.2
2022-12-18T08:54:03.500Z,87.2
2022-12-18T08:57:02.978Z,87.2
2022-12-18T09:00:03.118Z,87.7
2022-12-18T09:03:03.231Z,87.7
2022-12-18T09:06:03.055Z,87.7
2022-12-18T09:09:03.455Z,87.7
2022-12-18T09:12:03.033Z,87.7
2022-12-18T09:15:02.992Z,87.7
2022-12-18T09:18:02.989Z,87.7
2022-12-18T09:21:02.942Z,87.7
2022-12-18T09:24:03.045Z,87.7
2022-12-18T09:27:02.999Z,87.7
2022-12-18T09:30:03.048Z,87.7
2022-12-18T09:33:03.052Z,87.7
2022-12-18T09:36:03.000Z,88.6
2022-12-18T09:39:10.735Z,88.6
2022-12-18T09:42:02.987Z,88.6
2022-12-18T09:45:03.237Z,88.8
2022-12-18T09:48:02.976Z,88.8
2022-12-18T09:51:02.986Z,88.8
2022-12-18T09:54:02.979Z,88.8
2022-12-18T09:57:04.365Z,89.1
2022-12-18T10:00:03.046Z,89.1
2022-12-18T10:03:03.407Z,89.1
2022-12-18T10:06:03.220Z,89.1
2022-12-18T10:09:02.973Z,89.1
2022-12-18T10:12:02.989Z,89.1
2022-12-18T10:15:03.034Z,89.1
2022-12-18T10:18:03.085Z,89.1
2022-12-18T10:21:02.976Z,89.1
2022-12-18T10:24:02.964Z,89.6
2022-12-18T10:27:03.012Z,89.6
2022-12-18T10:30:03.034Z,89.6
2022-12-18T10:33:02.971Z,89.6
2022-12-18T10:36:03.052Z,89.6
2022-12-18T10:39:03.339Z,89.6
2022-12-18T10:42:02.997Z,89.8
2022-12-18T10:45:03.021Z,89.8
2022-12-18T10:48:02.939Z,89.8
2022-12-18T10:51:15.474Z,89.8
2022-12-18T10:54:03.237Z,90.2
2022-12-18T10:57:02.979Z,90.2
2022-12-18T11:00:03.034Z,90.2
2022-12-18T11:03:03.698Z,90.2
2022-12-18T11:06:03.050Z,90.2
2022-12-18T11:09:05.445Z,90.2
2022-12-18T11:12:02.981Z,90.2
2022-12-18T11:15:03.079Z,90.2
2022-12-18T11:18:03.389Z,90.2
2022-12-18T11:21:02.948Z,90.2
2022-12-18T11:24:03.010Z,90.2
2022-12-18T11:27:02.954Z,91.1
2022-12-18T11:30:03.095Z,91.1
2022-12-18T11:33:03.062Z,91.3
2022-12-18T11:36:03.096Z,91.3
2022-12-18T11:39:02.987Z,91.3
2022-12-18T11:42:03.016Z,91.3
2022-12-18T11:45:03.099Z,91.8
2022-12-18T11:48:03.075Z,91.8
2022-12-18T11:51:02.963Z,91.8
2022-12-18T11:54:03.055Z,91.8
2022-12-18T11:57:03.035Z,91.8
2022-12-18T12:00:03.092Z,91.8
2022-12-18T12:03:03.403Z,91.8
2022-12-18T12:06:02.972Z,92.2
2022-12-18T12:09:02.951Z,92.2
2022-12-18T12:12:02.966Z,92.2
2022-12-18T12:15:03.046Z,92.5
2022-12-18T12:18:05.773Z,92.5
2022-12-18T12:21:03.032Z,92.5
2022-12-18T12:24:03.700Z,92.5
2022-12-18T12:27:02.968Z,92.5
2022-12-18T12:30:03.116Z,92.5
2022-12-18T12:33:03.023Z,92.5
2022-12-18T12:36:03.066Z,92.5
2022-12-18T12:39:03.040Z,92.5
2022-12-18T12:42:02.972Z,92.5
2022-12-18T12:45:03.216Z,92.2
2022-12-18T12:48:03.074Z,92.2
2022-12-18T12:51:03.008Z,92.2
2022-12-18T12:54:03.089Z,92.2
2022-12-18T12:57:03.020Z,92.2
2022-12-18T13:00:03.377Z,92.2
2022-12-18T13:03:03.117Z,91.8
2022-12-18T13:06:04.440Z,91.8
2022-12-18T13:09:03.468Z,91.8
2022-12-18T13:12:03.158Z,91.8
2022-12-18T13:15:04.627Z,91.8
2022-12-18T13:18:03.051Z,91.5
2022-12-18T13:21:06.240Z,91.5
2022-12-18T13:24:03.028Z,91.5
2022-12-18T13:27:03.264Z,91.5
2022-12-18T13:30:02.985Z,91.5
2022-12-18T13:33:03.060Z,91.5
2022-12-18T13:36:03.658Z,91.5
2022-12-18T13:39:03.061Z,90.8
2022-12-18T13:42:03.057Z,90.8
2022-12-18T13:45:03.014Z,90.8
2022-12-18T13:48:03.034Z,90.8
2022-12-18T13:51:03.008Z,90.8
2022-12-18T13:54:03.028Z,90.8
2022-12-18T13:57:03.017Z,90.8
2022-12-18T14:00:03.105Z,90.8
2022-12-18T14:03:04.250Z,90.8
2022-12-18T14:06:03.036Z,90.8
2022-12-18T14:09:03.371Z,90.8
2022-12-18T14:12:03.052Z,88.9
2022-12-18T14:15:03.459Z,88.9
2022-12-18T14:18:03.018Z,88.9
2022-12-18T14:21:03.055Z,88.9
2022-12-18T14:24:03.042Z,88.9
2022-12-18T14:27:03.007Z,88.9
2022-12-18T14:30:03.084Z,88.9
2022-12-18T14:33:02.991Z,88.9
2022-12-18T14:36:02.987Z,88.9
2022-12-18T14:39:02.960Z,88.9
2022-12-18T14:42:03.129Z,88.9
2022-12-18T14:45:16.972Z,88.9
2022-12-18T14:48:03.245Z,88.9
2022-12-18T14:51:03.000Z,87.8
2022-12-18T14:54:03.066Z,87.8
2022-12-18T14:57:03.170Z,87.8
2022-12-18T15:00:03.080Z,87.8
2022-12-18T15:03:03.366Z,87.8
2022-12-18T15:06:04.555Z,87.3
2022-12-18T15:09:03.001Z,87.3
2022-12-18T15:12:03.045Z,87.3
2022-12-18T15:15:03.043Z,87.3
2022-12-18T15:18:02.932Z,86.6
2022-12-18T15:21:02.979Z,86.6
2022-12-18T15:24:03.016Z,86.6
2022-12-18T15:27:03.008Z,86.6
2022-12-18T15:30:03.068Z,86.6
2022-12-18T15:33:02.958Z,86.6
2022-12-18T15:36:03.008Z,86.6
2022-12-18T15:39:09.086Z,86.6
2022-12-18T15:42:02.916Z,86.6
2022-12-18T15:45:02.913Z,86.6
2022-12-18T15:48:03.114Z,86.6
2022-12-18T15:51:02.940Z,86.6
2022-12-18T15:54:02.908Z,86.6
2022-12-18T15:57:02.917Z,86.3
2022-12-18T16:00:03.278Z,86.3
2022-12-18T16:03:03.625Z,86.3
2022-12-18T16:06:04.327Z,86.3
2022-12-18T16:09:02.960Z,86.3
2022-12-18T16:12:02.946Z,86.3
2022-12-18T16:15:02.980Z,86.3
2022-12-18T16:18:02.985Z,85.7
2022-12-18T16:21:03.024Z,85.7
2022-12-18T16:24:02.957Z,85.7
2022-12-18T16:27:02.992Z,85.6
2022-12-18T16:30:03.202Z,85.6
2022-12-18T16:33:03.006Z,85.6
2022-12-18T16:36:02.964Z,85.6
2022-12-18T16:39:02.957Z,85.6
2022-12-18T16:42:05.317Z,85.6
2022-12-18T16:45:02.956Z,85.6
2022-12-18T16:48:02.990Z,85.6
2022-12-18T16:51:02.956Z,85.3
2022-12-18T16:54:12.607Z,85.3
2022-12-18T16:57:02.912Z,85.2
2022-12-18T17:00:08.373Z,85.2
2022-12-18T17:03:03.604Z,85.2
2022-12-18T17:06:02.962Z,85.2
2022-12-18T17:09:03.103Z,85.2
2022-12-18T17:12:06.958Z,85.2
2022-12-18T17:15:03.086Z,85.2
2022-12-18T17:18:02.988Z,85.2
2022-12-18T17:21:02.942Z,85.2
2022-12-18T17:24:02.959Z,85.2
2022-12-18T17:27:02.971Z,85.2
2022-12-18T17:30:03.001Z,85.1
2022-12-18T17:33:02.942Z,85.1
2022-12-18T17:36:02.954Z,85.1
2022-12-18T17:39:03.008Z,85.1
2022-12-18T17:42:03.007Z,85.1
2022-12-18T17:45:03.005Z,85.1
2022-12-18T17:48:02.956Z,85.4
2022-12-18T17:51:02.939Z,85.4
2022-12-18T17:54:02.995Z,85.4
2022-12-18T17:57:02.960Z,85.4
2022-12-18T18:00:03.081Z,85.4
2022-12-18T18:03:03.540Z,85.4
2022-12-18T18:06:02.905Z,85.4
2022-12-18T18:09:03.179Z,85.4
2022-12-18T18:12:03.319Z,85.4
2022-12-18T18:15:03.120Z,85.4
2022-12-18T18:18:02.953Z,86
2022-12-18T18:21:03.039Z,86
2022-12-18T18:24:02.967Z,86
2022-12-18T18:27:02.971Z,86
2022-12-18T18:30:03.061Z,86
2022-12-18T18:33:04.631Z,86.2
2022-12-18T18:36:02.948Z,86.2
2022-12-18T18:39:02.911Z,86.2
2022-12-18T18:42:02.910Z,86.2
2022-12-18T18:45:02.937Z,86.9
2022-12-18T18:48:02.917Z,86.9
2022-12-18T18:51:02.966Z,86.9
2022-12-18T18:54:03.132Z,86.9
2022-12-18T18:57:30.226Z,86.9
2022-12-18T19:00:03.061Z,86.9
2022-12-18T19:03:03.689Z,86.9
2022-12-18T19:06:03.002Z,86.9
2022-12-18T19:09:03.176Z,86.9
2022-12-18T19:12:03.049Z,86.3
2022-12-18T19:15:03.281Z,86.3
2022-12-18T19:18:03.073Z,86.3
2022-12-18T19:21:02.911Z,86.3
2022-12-18T19:24:02.976Z,86.3
2022-12-18T19:27:02.966Z,86.3
2022-12-18T19:30:03.045Z,86.3
2022-12-18T19:33:41.549Z,86.3
2022-12-18T19:36:03.231Z,86.3
2022-12-18T19:39:03.253Z,85.7
2022-12-18T19:42:02.978Z,85.6
2022-12-18T19:45:02.975Z,85.6
2022-12-18T19:48:06.952Z,85.6
2022-12-18T19:51:03.069Z,85.6
2022-12-18T19:54:04.324Z,85.6
2022-12-18T19:57:02.886Z,85.6
2022-12-18T20:00:02.971Z,85.6
2022-12-18T20:03:27.319Z,85.6
2022-12-18T20:06:02.961Z,85.7
2022-12-18T20:09:03.764Z,85.7
2022-12-18T20:12:03.186Z,85.7
2022-12-18T20:15:02.940Z,85.7
2022-12-18T20:18:03.262Z,85.6
2022-12-18T20:21:06.273Z,85.6
2022-12-18T20:24:02.967Z,85.6
2022-12-18T20:27:02.922Z,85.6
2022-12-18T20:30:02.964Z,85.6
2022-12-18T20:33:03.023Z,85.6
2022-12-18T20:36:03.061Z,85.4
2022-12-18T20:39:08.893Z,85.4
2022-12-18T20:42:02.948Z,85.4
2022-12-18T20:45:03.032Z,85.4
2022-12-18T20:48:02.907Z,85.4
2022-12-18T20:51:06.181Z,85.4
2022-12-18T20:54:02.956Z,85.4
2022-12-18T20:57:03.082Z,85.2
2022-12-18T21:00:03.042Z,85.2
2022-12-18T21:03:05.028Z,85.2
2022-12-18T21:06:02.988Z,85.2
2022-12-18T21:09:02.964Z,85.2
2022-12-18T21:12:02.966Z,85.2
2022-12-18T21:15:03.003Z,85.2
2022-12-18T21:18:03.289Z,85.1
2022-12-18T21:21:02.984Z,85.1
2022-12-18T21:24:02.987Z,85.1
2022-12-18T21:27:03.054Z,85.1
2022-12-18T21:30:03.157Z,85.1
2022-12-18T21:33:02.969Z,85.1
2022-12-18T21:36:02.989Z,85.1
2022-12-18T21:39:02.943Z,85.1
2022-12-18T21:42:02.934Z,85.1
2022-12-18T21:45:03.186Z,85.1
2022-12-18T21:48:02.960Z,85.1
2022-12-18T21:51:03.102Z,85.1
2022-12-18T21:54:03.011Z,85.1
2022-12-18T21:57:02.902Z,85.1
2022-12-18T22:00:02.977Z,85.1
2022-12-18T22:03:21.672Z,85.1
2022-12-18T22:06:12.054Z,85.1
2022-12-18T22:09:02.942Z,85.1
2022-12-18T22:12:02.938Z,85.1
2022-12-18T22:15:02.961Z,85.1
2022-12-18T22:18:03.085Z,85.1
2022-12-18T22:21:02.933Z,85.1
2022-12-18T22:24:02.989Z,85.1
2022-12-18T22:27:05.148Z,85.1
2022-12-18T22:30:02.969Z,84.9
2022-12-18T22:33:02.877Z,84.9
2022-12-18T22:36:02.939Z,84.9
2022-12-18T22:39:02.903Z,84.9
2022-12-18T22:42:03.476Z,84.9
2022-12-18T22:45:03.688Z,85.1
2022-12-18T22:48:02.961Z,85.1
2022-12-18T22:51:02.918Z,85.1
2022-12-18T22:54:04.281Z,85.1
2022-12-18T22:57:02.998Z,85.1
2022-12-18T23:00:03.488Z,85.1
2022-12-18T23:03:04.222Z,85.3
2022-12-18T23:06:02.952Z,85.3
2022-12-18T23:09:03.034Z,85.3
2022-12-18T23:12:02.988Z,85.2
2022-12-18T23:15:02.970Z,85.2
2022-12-18T23:18:02.966Z,85.1
2022-12-18T23:21:03.635Z,85.1
2022-12-18T23:24:03.112Z,85
2022-12-18T23:27:04.825Z,85
2022-12-18T23:30:02.997Z,85
2022-12-18T23:33:03.135Z,85
2022-12-18T23:36:02.975Z,85
2022-12-18T23:39:03.012Z,85
2022-12-18T23:42:03.215Z,85
2022-12-18T23:45:15.899Z,85
2022-12-18T23:48:02.955Z,85
2022-12-18T23:51:02.928Z,85
2022-12-18T23:54:02.878Z,85
2022-12-18T23:57:02.932Z,85
